Time;durP1;ratioP1;P1;durP2;ratioP2;P2;SDS_P1;SDS_P2;PMS_P1;PMS_P2;Temp;Humidity;BMP_temperature;BMP_pressure;BME280_temperature;BME280_humidity;BME280_pressure;Samples;Min_cycle;Max_cycle;Signal;HPM_P1;HPM_P2
2021/11/21 00:00:27;;;;;;;;;;;;;;;16.45;54.52;100965.38;5047191;28;19919;-41
2021/11/21 00:02:53;;;;;;;;;;;;;;;16.44;54.31;100964.50;5044623;28;19932;-40
2021/11/21 00:05:18;;;;;;;;;;;;;;;16.45;54.54;100960.88;5048784;28;19916;-41
2021/11/21 00:07:44;;;;;;;;;;;;;;;16.46;54.35;100961.75;5047900;28;19970;-43
2021/11/21 00:10:10;;;;;;;;;;;;;;;16.45;54.60;100960.88;5045560;28;19955;-40
2021/11/21 00:12:35;;;;;;;;;;;;;;;16.45;54.58;100966.25;5048667;28;20362;-42
2021/11/21 00:15:01;;;;;;;;;;;;;;;16.47;54.68;100958.94;5046807;28;19924;-40
2021/11/21 00:17:26;;;;;;;;;;;;;;;16.47;54.58;100958.94;5038032;28;20341;-40
2021/11/21 00:19:53;;;;;;;;;;;;;;;16.46;54.25;100954.53;5033334;28;19929;-42
2021/11/21 00:22:18;;;;;;;;;;;;;;;16.48;54.34;100949.06;5012281;28;20317;-43
2021/11/21 00:24:43;;;;;;;;;;;;;;;16.47;54.29;100944.66;4994903;28;19914;-42
2021/11/21 00:27:09;;;;;;;;;;;;;;;16.48;54.17;100939.22;5020937;28;19921;-41
2021/11/21 00:29:35;;;;;;;;;;;;;;;16.48;54.38;100927.59;5048046;28;19924;-43
2021/11/21 00:32:00;;;;;;;;;;;;;;;16.47;54.52;100932.13;5013510;28;20010;-43
2021/11/21 00:34:26;;;;;;;;;;;;;;;16.49;54.63;100929.34;5047995;28;20303;-43
2021/11/21 00:36:51;;;;;;;;;;;;;;;16.49;54.58;100929.34;5055060;28;20444;-42
2021/11/21 00:39:16;;;;;;;;;;;;;;;16.49;54.17;100919.47;5054246;28;19917;-43
2021/11/21 00:41:42;;;;;;;;;;;;;;;16.47;54.51;100910.66;5045739;28;19917;-42
2021/11/21 00:44:07;;;;;;;;;;;;;;;16.48;54.57;100901.66;5054102;28;19916;-42
2021/11/21 00:46:32;;;;;;;;;;;;;;;16.49;54.47;100910.56;5054208;28;19919;-45
2021/11/21 00:48:59;;;;;;;;;;;;;;;16.48;54.63;100904.34;5033114;28;20020;-42
2021/11/21 00:51:24;;;;;;;;;;;;;;;16.51;54.40;100912.19;5015549;28;19948;-39
2021/11/21 00:53:54;;;;;;;;;;;;;;;16.50;54.22;100910.47;5015210;28;19948;-39
2021/11/21 00:56:20;;;;;;;;;;;;;;;16.49;54.28;100902.53;5015518;28;19913;-39
2021/11/21 00:58:45;;;;;;;;;;;;;;;16.48;54.23;100896.31;5004282;28;19924;-40
2021/11/21 01:01:11;;;;;;;;;;;;;;;16.49;54.75;100897.16;5025962;28;19924;-40
2021/11/21 01:03:36;;;;;;;;;;;;;;;16.49;54.69;100894.47;5015240;28;20310;-42
2021/11/21 01:06:02;;;;;;;;;;;;;;;16.49;54.43;100889.97;5015285;28;19967;-39
2021/11/21 01:08:27;;;;;;;;;;;;;;;16.48;54.42;100877.50;5016145;28;19921;-42
2021/11/21 01:10:56;;;;;;;;;;;;;;;16.49;54.62;100876.53;5020601;28;19923;-39
2021/11/21 01:13:23;;;;;;;;;;;;;;;16.50;54.43;100878.25;5034772;28;19913;-41
2021/11/21 01:15:49;;;;;;;;;;;;;;;16.49;54.28;100876.53;5030622;28;20079;-40
2021/11/21 01:18:14;;;;;;;;;;;;;;;16.50;54.21;100878.25;5014962;28;20388;-40
2021/11/21 01:20:41;;;;;;;;;;;;;;;16.50;54.47;100867.53;5018493;28;19917;-40
2021/11/21 01:23:07;;;;;;;;;;;;;;;16.50;54.63;100866.66;5034515;28;20392;-42
2021/11/21 01:25:32;;;;;;;;;;;;;;;16.50;54.32;100872.91;5034486;28;19917;-40
2021/11/21 01:27:58;;;;;;;;;;;;;;;16.49;54.64;100875.69;5016768;28;19975;-41
2021/11/21 01:30:26;;;;;;;;;;;;;;;16.48;54.35;100864.09;5016187;28;19967;-40
2021/11/21 01:32:52;;;;;;;;;;;;;;;16.50;54.64;100864.84;5018361;28;19971;-43
2021/11/21 01:35:17;;;;;;;;;;;;;;;16.49;54.41;100860.44;5034568;28;19913;-41
2021/11/21 01:37:43;;;;;;;;;;;;;;;16.50;54.63;100866.66;5034490;28;20369;-42
2021/11/21 01:40:10;;;;;;;;;;;;;;;16.50;54.32;100864.00;5033987;28;19940;-40
2021/11/21 01:42:35;;;;;;;;;;;;;;;16.49;54.24;100862.28;5029506;28;20337;-42
2021/11/21 01:45:01;;;;;;;;;;;;;;;16.51;54.55;100863.88;5016552;28;20358;-40
2021/11/21 01:47:26;;;;;;;;;;;;;;;16.51;54.40;100863.03;5034280;28;20436;-42
2021/11/21 01:49:51;;;;;;;;;;;;;;;16.51;54.69;100858.50;5033717;28;19989;-40
2021/11/21 01:52:17;;;;;;;;;;;;;;;16.49;54.60;100860.44;5034236;28;19928;-43
2021/11/21 01:54:42;;;;;;;;;;;;;;;16.49;54.23;100849.72;5034017;28;20392;-43
2021/11/21 01:57:08;;;;;;;;;;;;;;;16.50;54.57;100846.06;5045069;22;19929;-38
2021/11/21 01:59:34;;;;;;;;;;;;;;;16.49;54.37;100841.66;5033971;28;19917;-38
2021/11/21 02:01:59;;;;;;;;;;;;;;;16.49;54.22;100840.81;5020402;28;19979;-38
2021/11/21 02:04:25;;;;;;;;;;;;;;;16.51;54.26;100846.91;5015027;28;19913;-39
2021/11/21 02:06:50;;;;;;;;;;;;;;;16.50;54.60;100834.47;5002092;28;19936;-38
2021/11/21 02:09:15;;;;;;;;;;;;;;;16.50;54.39;100829.97;4995295;28;20033;-39
2021/11/21 02:11:41;;;;;;;;;;;;;;;16.48;54.57;100831.91;5012720;28;20025;-39
2021/11/21 02:14:06;;;;;;;;;;;;;;;16.48;54.51;100834.59;5013125;28;20016;-38
2021/11/21 02:16:32;;;;;;;;;;;;;;;16.48;54.68;100837.25;5013281;28;19913;-38
2021/11/21 02:18:58;;;;;;;;;;;;;;;16.50;54.28;100829.09;5013325;28;19921;-38
2021/11/21 02:21:24;;;;;;;;;;;;;;;16.49;54.28;100822.88;5005559;28;20294;-39
2021/11/21 02:23:50;;;;;;;;;;;;;;;16.46;54.48;100815.03;4993628;28;19997;-39
2021/11/21 02:26:17;;;;;;;;;;;;;;;16.48;54.61;100802.38;5010539;28;20336;-38
2021/11/21 02:28:43;;;;;;;;;;;;;;;16.47;54.72;100795.28;5012931;28;20301;-38
2021/11/21 02:31:11;;;;;;;;;;;;;;;16.49;54.55;100800.56;5007506;28;19922;-38
2021/11/21 02:33:36;;;;;;;;;;;;;;;16.47;54.49;100792.59;5002463;28;19925;-38
2021/11/21 02:36:02;;;;;;;;;;;;;;;16.48;54.47;100785.38;5012713;28;20285;-39
2021/11/21 02:38:28;;;;;;;;;;;;;;;16.47;54.44;100787.22;5012809;28;19924;-38
2021/11/21 02:40:55;;;;;;;;;;;;;;;16.46;54.64;100779.28;5009901;28;19918;-38
2021/11/21 02:43:21;;;;;;;;;;;;;;;16.47;54.27;100791.72;5011041;28;19918;-38
2021/11/21 02:45:47;;;;;;;;;;;;;;;16.46;54.73;100780.13;5012566;28;19942;-38
2021/11/21 02:48:16;;;;;;;;;;;;;;;16.44;54.39;100776.69;5012630;28;20003;-38
2021/11/21 02:50:42;;;;;;;;;;;;;;;16.44;54.59;100771.31;5011257;28;19913;-39
2021/11/21 02:53:08;;;;;;;;;;;;;;;16.45;54.58;100774.88;4992968;28;20416;-39
2021/11/21 02:55:34;;;;;;;;;;;;;;;16.42;54.73;100773.25;4992932;28;19914;-39
2021/11/21 02:58:00;;;;;;;;;;;;;;;16.43;54.64;100764.22;4993942;28;20303;-38
2021/11/21 03:00:25;;;;;;;;;;;;;;;16.40;54.63;100756.38;4994481;28;19924;-38
2021/11/21 03:02:51;;;;;;;;;;;;;;;16.44;54.54;100762.41;5012264;28;19917;-39
2021/11/21 03:05:19;;;;;;;;;;;;;;;16.45;54.69;100756.97;5012596;28;19913;-39
2021/11/21 03:07:45;;;;;;;;;;;;;;;16.44;54.74;100754.34;5010995;28;19924;-38
2021/11/21 03:10:12;;;;;;;;;;;;;;;16.42;54.48;100741.06;4994264;28;19918;-39
2021/11/21 03:12:37;;;;;;;;;;;;;;;16.41;54.46;100746.50;4995213;28;20302;-38
2021/11/21 03:15:03;;;;;;;;;;;;;;;16.40;54.69;100742.94;4994747;28;20390;-38
2021/11/21 03:17:29;;;;;;;;;;;;;;;16.40;54.40;100740.28;5014264;28;20290;-38
2021/11/21 03:19:54;;;;;;;;;;;;;;;16.39;54.90;100735.00;4997674;28;20020;-39
2021/11/21 03:22:19;;;;;;;;;;;;;;;16.36;54.51;100728.00;4994741;28;20332;-38
2021/11/21 03:24:45;;;;;;;;;;;;;;;16.36;54.56;100730.69;4994506;28;20294;-39
2021/11/21 03:27:11;;;;;;;;;;;;;;;16.39;54.85;100726.97;4994258;28;20373;-39
2021/11/21 03:29:37;;;;;;;;;;;;;;;16.38;54.82;100730.63;5010002;28;19963;-39
2021/11/21 03:32:03;;;;;;;;;;;;;;;16.35;54.51;100723.63;5013119;28;19943;-39
2021/11/21 03:34:29;;;;;;;;;;;;;;;16.36;54.56;100725.34;4994287;28;19918;-38
2021/11/21 03:36:55;;;;;;;;;;;;;;;16.35;54.99;100728.13;4976533;28;19913;-39
2021/11/21 03:39:20;;;;;;;;;;;;;;;16.35;54.57;100712.03;5008205;28;20055;-38
2021/11/21 03:41:45;;;;;;;;;;;;;;;16.34;54.77;100719.22;4996291;28;20008;-38
2021/11/21 03:44:11;;;;;;;;;;;;;;;16.34;54.72;100721.91;4995189;28;19921;-39
2021/11/21 03:46:37;;;;;;;;;;;;;;;16.32;55.01;100713.94;5011899;28;19920;-38
2021/11/21 03:49:03;;;;;;;;;;;;;;;16.31;55.06;100716.72;5003058;28;19922;-38
2021/11/21 03:51:29;;;;;;;;;;;;;;;16.31;55.01;100712.22;5011803;28;19924;-39
2021/11/21 03:53:55;;;;;;;;;;;;;;;16.29;54.84;100706.09;5012025;28;19913;-38
2021/11/21 03:56:20;;;;;;;;;;;;;;;16.30;55.02;100709.66;5011710;28;20008;-38
2021/11/21 03:58:45;;;;;;;;;;;;;;;16.31;54.96;100706.00;5003655;28;19917;-38
2021/11/21 04:01:11;;;;;;;;;;;;;;;16.30;54.89;100707.81;4990908;28;20505;-38
2021/11/21 04:03:37;;;;;;;;;;;;;;;16.31;55.02;100700.63;4991290;28;19921;-38
2021/11/21 04:06:02;;;;;;;;;;;;;;;16.28;54.66;100706.19;4994722;28;19956;-38
2021/11/21 04:08:27;;;;;;;;;;;;;;;16.29;55.01;100705.22;5006078;28;19961;-38
2021/11/21 04:10:54;;;;;;;;;;;;;;;16.29;55.02;100702.53;4994385;28;20382;-38
2021/11/21 04:13:20;;;;;;;;;;;;;;;16.28;54.93;100708.88;4995974;28;19917;-39
2021/11/21 04:15:45;;;;;;;;;;;;;;;16.27;54.61;100699.97;4995992;28;19921;-38
2021/11/21 04:18:10;;;;;;;;;;;;;;;16.27;54.71;100699.97;4998518;28;20318;-38
2021/11/21 04:20:36;;;;;;;;;;;;;;;16.25;54.92;100692.97;5015405;28;19939;-39
2021/11/21 04:23:01;;;;;;;;;;;;;;;16.24;54.92;100697.47;5011601;28;20373;-38
2021/11/21 04:25:26;;;;;;;;;;;;;;;16.24;54.73;100704.66;5014873;28;20349;-38
2021/11/21 04:27:52;;;;;;;;;;;;;;;16.25;55.21;100695.66;5014907;28;19918;-42
2021/11/21 04:30:17;;;;;;;;;;;;;;;16.25;55.14;100701.00;4995709;28;19915;-41
2021/11/21 04:32:44;;;;;;;;;;;;;;;16.24;54.64;100694.78;4978127;28;20382;-41
2021/11/21 04:35:10;;;;;;;;;;;;;;;16.25;54.86;100690.28;4995971;28;20390;-41
2021/11/21 04:37:35;;;;;;;;;;;;;;;16.25;55.08;100698.34;4995702;28;19913;-41
2021/11/21 04:40:02;;;;;;;;;;;;;;;16.23;54.68;100695.75;4996353;28;20449;-41
2021/11/21 04:42:27;;;;;;;;;;;;;;;16.25;54.78;100696.50;4997354;28;19925;-41
2021/11/21 04:44:53;;;;;;;;;;;;;;;16.24;55.00;100693.94;5015131;28;20383;-41
2021/11/21 04:47:18;;;;;;;;;;;;;;;16.22;55.13;100691.38;5014838;28;19918;-41
2021/11/21 04:49:43;;;;;;;;;;;;;;;16.23;54.72;100687.72;4999929;28;19922;-41
2021/11/21 04:52:09;;;;;;;;;;;;;;;16.23;54.66;100682.34;5007980;28;19947;-38
2021/11/21 04:54:35;;;;;;;;;;;;;;;16.23;55.08;100670.75;5014867;28;20055;-38
2021/11/21 04:57:00;;;;;;;;;;;;;;;16.24;55.05;100672.47;5014442;28;20317;-39
2021/11/21 04:59:26;;;;;;;;;;;;;;;16.23;54.92;100666.25;5002542;28;20000;-38
2021/11/21 05:01:51;;;;;;;;;;;;;;;16.21;54.75;100664.63;4994943;28;19914;-38
2021/11/21 05:04:16;;;;;;;;;;;;;;;16.23;55.12;100663.56;4994974;28;19936;-39
2021/11/21 05:06:42;;;;;;;;;;;;;;;16.22;55.00;100659.19;4994938;28;19996;-39
2021/11/21 05:09:07;;;;;;;;;;;;;;;16.23;54.80;100660.03;5008532;28;20270;-38
2021/11/21 05:11:34;;;;;;;;;;;;;;;16.21;54.94;100660.13;4994801;28;19968;-38
2021/11/21 05:14:00;;;;;;;;;;;;;;;16.21;54.71;100651.22;4994832;28;20000;-39
2021/11/21 05:16:26;;;;;;;;;;;;;;;16.21;55.06;100641.34;5013064;28;20008;-38
2021/11/21 05:18:51;;;;;;;;;;;;;;;16.21;54.76;100645.84;4996306;28;19972;-39
2021/11/21 05:21:17;;;;;;;;;;;;;;;16.19;54.85;100635.22;5011409;28;19917;-38
2021/11/21 05:23:43;;;;;;;;;;;;;;;16.21;54.76;100640.47;5015244;28;19914;-39
2021/11/21 05:26:08;;;;;;;;;;;;;;;16.20;55.15;100639.63;5016271;28;19924;-38
2021/11/21 05:28:34;;;;;;;;;;;;;;;16.20;54.81;100638.78;5015953;28;19964;-39
2021/11/21 05:30:59;;;;;;;;;;;;;;;16.21;54.84;100640.47;5001305;28;19933;-39
2021/11/21 05:33:24;;;;;;;;;;;;;;;16.23;55.06;100643.94;5007779;28;19918;-39
2021/11/21 05:35:50;;;;;;;;;;;;;;;16.21;54.81;100643.16;5014127;28;19951;-38
2021/11/21 05:38:15;;;;;;;;;;;;;;;16.21;54.73;100640.47;5013980;28;19914;-39
2021/11/21 05:40:41;;;;;;;;;;;;;;;16.20;55.01;100638.78;5013160;28;20341;-38
2021/11/21 05:43:06;;;;;;;;;;;;;;;16.20;54.64;100636.94;5013867;28;20433;-38
2021/11/21 05:45:31;;;;;;;;;;;;;;;16.20;54.94;100634.25;5013766;28;19920;-38
2021/11/21 05:47:58;;;;;;;;;;;;;;;16.20;54.58;100633.41;5013632;28;19992;-38
2021/11/21 05:50:23;;;;;;;;;;;;;;;16.19;55.04;100631.69;4994500;28;20345;-39
2021/11/21 05:52:49;;;;;;;;;;;;;;;16.19;54.70;100623.66;5013757;28;19926;-38
2021/11/21 05:55:16;;;;;;;;;;;;;;;16.19;54.96;100623.66;5013505;28;19917;-38
2021/11/21 05:57:42;;;;;;;;;;;;;;;16.18;54.88;100619.22;5013462;28;19928;-38
2021/11/21 06:00:09;;;;;;;;;;;;;;;16.18;54.71;100624.59;5009700;28;19925;-39
2021/11/21 06:02:34;;;;;;;;;;;;;;;16.19;54.91;100624.50;4995976;28;19913;-38
2021/11/21 06:05:00;;;;;;;;;;;;;;;16.19;54.69;100620.97;4994524;28;20055;-38
2021/11/21 06:07:25;;;;;;;;;;;;;;;16.17;54.86;100617.50;5001399;28;20009;-39
2021/11/21 06:09:51;;;;;;;;;;;;;;;16.17;54.73;100621.03;5008913;28;19921;-38
2021/11/21 06:12:16;;;;;;;;;;;;;;;16.18;54.71;100613.84;4993861;28;20366;-38
2021/11/21 06:14:41;;;;;;;;;;;;;;;16.16;55.17;100616.66;4993655;28;19914;-39
2021/11/21 06:17:08;;;;;;;;;;;;;;;16.16;54.97;100626.53;4993675;28;19920;-38
2021/11/21 06:19:35;;;;;;;;;;;;;;;16.17;55.26;100625.56;4994638;28;19914;-39
2021/11/21 06:22:00;;;;;;;;;;;;;;;16.16;54.66;100613.97;5009600;28;19917;-38
2021/11/21 06:24:25;;;;;;;;;;;;;;;16.17;54.89;100620.19;4976005;28;19918;-39
2021/11/21 06:26:51;;;;;;;;;;;;;;;16.15;54.98;100609.56;4993547;28;19949;-38
2021/11/21 06:29:17;;;;;;;;;;;;;;;16.16;54.66;100605.06;4993319;28;19918;-38
2021/11/21 06:31:43;;;;;;;;;;;;;;;16.17;55.06;100612.16;5011706;28;19917;-38
2021/11/21 06:34:08;;;;;;;;;;;;;;;16.16;55.26;100600.56;5012142;28;19920;-39
2021/11/21 06:36:34;;;;;;;;;;;;;;;16.16;54.84;100602.38;5012918;28;19956;-38
2021/11/21 06:39:00;;;;;;;;;;;;;;;16.15;55.26;100598.84;4990927;28;19921;-42
2021/11/21 06:41:25;;;;;;;;;;;;;;;16.15;55.15;100600.69;5009032;28;19924;-41
2021/11/21 06:43:51;;;;;;;;;;;;;;;16.14;54.91;100586.41;5012792;28;20035;-41
2021/11/21 06:46:16;;;;;;;;;;;;;;;16.14;54.98;100593.56;5012667;28;20004;-42
2021/11/21 06:48:41;;;;;;;;;;;;;;;16.15;55.07;100593.47;5012580;28;20012;-40
2021/11/21 06:51:07;;;;;;;;;;;;;;;16.15;54.72;100593.47;4999322;28;19917;-40
2021/11/21 06:53:33;;;;;;;;;;;;;;;16.15;54.84;100598.00;4975667;28;20440;-41
2021/11/21 06:55:58;;;;;;;;;;;;;;;16.15;55.00;100598.00;4994530;28;20306;-41
2021/11/21 06:58:26;;;;;;;;;;;;;;;16.14;55.03;100598.94;5012603;28;19918;-41
2021/11/21 07:00:52;;;;;;;;;;;;;;;16.14;54.82;100602.50;5008554;28;20001;-38
2021/11/21 07:03:17;;;;;;;;;;;;;;;16.13;54.79;100606.13;5012763;28;19926;-38
2021/11/21 07:05:42;;;;;;;;;;;;;;;16.14;54.89;100604.28;5012745;28;20290;-39
2021/11/21 07:08:08;;;;;;;;;;;;;;;16.15;54.78;100600.69;5012804;28;19991;-38
2021/11/21 07:10:33;;;;;;;;;;;;;;;16.14;54.80;100604.28;5001828;28;19914;-39
2021/11/21 07:13:01;;;;;;;;;;;;;;;16.13;54.60;100614.16;5012556;28;19921;-38
2021/11/21 07:15:27;;;;;;;;;;;;;;;16.13;55.22;100607.94;5012520;28;19968;-38
2021/11/21 07:17:53;;;;;;;;;;;;;;;16.14;55.06;100601.59;5017221;28;20317;-38
2021/11/21 07:20:18;;;;;;;;;;;;;;;16.13;54.69;100606.13;5010461;28;19917;-38
2021/11/21 07:22:45;;;;;;;;;;;;;;;16.13;55.02;100610.63;4994993;28;19922;-38
2021/11/21 07:25:16;;;;;;;;;;;;;;;16.14;54.87;100606.97;4994274;28;19917;-38
2021/11/21 07:27:42;;;;;;;;;;;;;;;16.13;54.81;100599.91;4996124;28;20344;-38
2021/11/21 07:30:08;;;;;;;;;;;;;;;16.13;54.72;100607.94;5012370;28;19925;-38
2021/11/21 07:32:33;;;;;;;;;;;;;;;16.12;54.86;100598.19;5008551;28;20032;-39
2021/11/21 07:34:58;;;;;;;;;;;;;;;16.13;54.76;100602.56;5011312;28;19980;-38
2021/11/21 07:37:24;;;;;;;;;;;;;;;16.12;55.15;100604.41;5007663;28;19914;-38
2021/11/21 07:39:49;;;;;;;;;;;;;;;16.11;54.96;100589.28;5011070;28;19917;-39
2021/11/21 07:42:15;;;;;;;;;;;;;;;16.11;54.85;100588.44;5011353;28;20313;-39
2021/11/21 07:44:40;;;;;;;;;;;;;;;16.11;54.96;100591.09;4993381;28;19914;-38
2021/11/21 07:47:05;;;;;;;;;;;;;;;16.13;54.77;100583.81;5006718;28;20360;-39
2021/11/21 07:49:31;;;;;;;;;;;;;;;16.13;54.72;100594.53;5011725;28;19922;-38
2021/11/21 07:51:56;;;;;;;;;;;;;;;16.11;55.11;100591.97;5011616;28;19913;-38
2021/11/21 07:54:21;;;;;;;;;;;;;;;16.12;54.70;100593.69;4993152;28;20298;-39
2021/11/21 07:56:47;;;;;;;;;;;;;;;16.12;54.73;100598.19;5029543;22;19925;-42
2021/11/21 07:59:12;;;;;;;;;;;;;;;16.12;54.86;100598.19;5031906;28;20381;-40
2021/11/21 08:01:38;;;;;;;;;;;;;;;16.11;54.98;100591.09;5031835;28;19913;-40
2021/11/21 08:04:04;;;;;;;;;;;;;;;16.10;55.10;100590.22;5031798;28;20000;-40
2021/11/21 08:06:30;;;;;;;;;;;;;;;16.09;54.94;100589.38;5036125;28;19921;-40
2021/11/21 08:08:55;;;;;;;;;;;;;;;16.11;54.80;100591.09;5031556;28;19917;-40
2021/11/21 08:11:20;;;;;;;;;;;;;;;16.11;54.69;100588.44;5029737;28;19913;-40
2021/11/21 08:13:46;;;;;;;;;;;;;;;16.11;54.80;100588.44;5010872;28;20063;-39
2021/11/21 08:16:11;;;;;;;;;;;;;;;16.09;54.90;100586.69;5021712;28;19956;-40
2021/11/21 08:18:36;;;;;;;;;;;;;;;16.10;54.60;100579.50;5011351;28;19921;-39
2021/11/21 08:21:02;;;;;;;;;;;;;;;16.11;55.13;100580.38;5017303;28;19921;-41
2021/11/21 08:23:27;;;;;;;;;;;;;;;16.09;54.79;100573.28;5010330;28;19921;-40
2021/11/21 08:25:53;;;;;;;;;;;;;;;16.09;54.81;100578.63;4998389;28;19920;-42
2021/11/21 08:28:18;;;;;;;;;;;;;;;16.09;54.83;100575.09;5012726;28;20345;-40
2021/11/21 08:30:43;;;;;;;;;;;;;;;16.09;54.87;100578.63;5014039;28;19921;-39
2021/11/21 08:33:09;;;;;;;;;;;;;;;16.11;55.01;100577.69;5031144;28;19917;-40
2021/11/21 08:35:36;;;;;;;;;;;;;;;16.08;54.70;100568.88;5030856;28;20281;-40
2021/11/21 08:38:01;;;;;;;;;;;;;;;16.09;54.75;100577.78;5011806;28;19913;-40
2021/11/21 08:40:29;;;;;;;;;;;;;;;16.08;54.91;100570.72;5023554;28;20289;-41
2021/11/21 08:42:55;;;;;;;;;;;;;;;16.09;55.13;100572.41;5012376;28;19960;-40
2021/11/21 08:45:21;;;;;;;;;;;;;;;16.08;55.09;100576.94;5008900;28;19995;-40
2021/11/21 08:47:46;;;;;;;;;;;;;;;16.08;54.65;100568.88;5008107;28;20008;-41
2021/11/21 08:50:12;;;;;;;;;;;;;;;16.08;55.13;100571.56;5031252;28;20352;-41
2021/11/21 08:52:38;;;;;;;;;;;;;;;16.09;54.93;100577.78;5030112;28;19913;-42
2021/11/21 08:55:04;;;;;;;;;;;;;;;16.08;54.72;100571.56;5030945;28;19959;-41
2021/11/21 08:57:30;;;;;;;;;;;;;;;16.09;54.97;100570.59;5034100;28;19970;-40
2021/11/21 08:59:56;;;;;;;;;;;;;;;16.08;54.84;100565.34;5033814;28;19913;-39
2021/11/21 09:02:21;;;;;;;;;;;;;;;16.09;54.92;100564.38;5016085;28;19920;-38
2021/11/21 09:04:46;;;;;;;;;;;;;;;16.08;54.91;100571.56;5028333;28;20016;-46
2021/11/21 09:07:12;;;;;;;;;;;;;;;16.10;54.71;100574.13;5021581;28;19917;-41
2021/11/21 09:09:37;;;;;;;;;;;;;;;16.09;54.78;100570.59;5032449;28;19921;-39
2021/11/21 09:12:03;;;;;;;;;;;;;;;16.11;55.15;100575.03;5033097;28;19913;-41
2021/11/21 09:14:28;;;;;;;;;;;;;;;16.11;55.02;100570.50;5033302;28;19917;-41
2021/11/21 09:16:54;;;;;;;;;;;;;;;16.12;54.87;100571.38;5033538;28;19978;-40
2021/11/21 09:19:19;;;;;;;;;;;;;;;16.12;54.96;100569.53;5034361;28;19948;-40
2021/11/21 09:21:44;;;;;;;;;;;;;;;16.13;54.83;100573.94;5022660;28;19921;-39
2021/11/21 09:24:10;;;;;;;;;;;;;;;16.13;54.84;100565.03;5029766;28;20380;-40
2021/11/21 09:26:35;;;;;;;;;;;;;;;16.14;54.81;100572.13;5033966;28;19932;-39
2021/11/21 09:29:01;;;;;;;;;;;;;;;16.14;55.13;100558.69;5033812;28;19917;-42
2021/11/21 09:31:26;;;;;;;;;;;;;;;16.14;55.14;100554.22;5034047;28;20370;-42
2021/11/21 09:33:52;;;;;;;;;;;;;;;16.14;54.82;100556.03;5033141;28;20393;-40
2021/11/21 09:36:17;;;;;;;;;;;;;;;16.16;54.90;100562.16;5026956;28;19921;-41
2021/11/21 09:38:43;;;;;;;;;;;;;;;16.17;54.77;100558.50;5033667;28;19913;-40
2021/11/21 09:41:09;;;;;;;;;;;;;;;16.16;54.72;100554.13;5033453;28;19924;-39
2021/11/21 09:43:34;;;;;;;;;;;;;;;16.17;55.13;100559.38;5002235;28;19921;-40
2021/11/21 09:46:00;;;;;;;;;;;;;;;16.19;55.03;100556.59;5022654;28;19921;-40
2021/11/21 09:48:31;;;;;;;;;;;;;;;16.20;54.93;100556.47;5033571;28;19917;-41
2021/11/21 09:50:57;;;;;;;;;;;;;;;16.21;54.63;100557.34;5030498;28;20404;-42
2021/11/21 09:53:23;;;;;;;;;;;;;;;16.22;55.01;100545.69;5027486;28;19913;-43
2021/11/21 09:55:48;;;;;;;;;;;;;;;16.23;54.93;100547.38;5016186;28;19928;-41
2021/11/21 09:58:14;;;;;;;;;;;;;;;16.23;54.72;100547.38;5015486;28;19976;-40
2021/11/21 10:00:40;;;;;;;;;;;;;;;16.25;54.91;100542.75;4995592;28;20424;-42
2021/11/21 10:03:05;;;;;;;;;;;;;;;16.25;54.98;100524.84;5013771;28;20008;-45
2021/11/21 10:05:35;;;;;;;;;;;;;;;16.26;54.57;100531.09;5025731;28;19967;-40
2021/11/21 10:08:02;;;;;;;;;;;;;;;16.29;54.88;100533.56;5032942;28;19913;-40
2021/11/21 10:10:33;;;;;;;;;;;;;;;16.29;54.67;100531.75;5032291;28;19939;-44
2021/11/21 10:12:58;;;;;;;;;;;;;;;16.29;54.64;100522.81;5014623;28;19924;-40
2021/11/21 10:15:23;;;;;;;;;;;;;;;16.29;54.64;100530.88;5014218;28;19917;-41
2021/11/21 10:17:53;;;;;;;;;;;;;;;16.31;54.42;100526.28;5029549;28;19935;-43
2021/11/21 10:20:22;;;;;;;;;;;;;;;16.32;54.38;100526.16;5032780;28;20389;-47
2021/11/21 10:22:48;;;;;;;;;;;;;;;16.32;54.53;100526.16;5020935;28;19917;-42
2021/11/21 10:25:14;;;;;;;;;;;;;;;16.34;54.71;100531.44;5022817;28;20340;-42
2021/11/21 10:27:41;;;;;;;;;;;;;;;16.34;54.97;100515.34;5015357;28;20356;-41
2021/11/21 10:30:08;;;;;;;;;;;;;;;16.36;54.86;100515.22;5032882;28;20258;-43
2021/11/21 10:32:34;;;;;;;;;;;;;;;16.36;54.42;100505.34;5033474;28;19999;-42
2021/11/21 10:35:07;;;;;;;;;;;;;;;16.35;54.50;100509.00;5033563;28;20357;-43
2021/11/21 10:37:34;;;;;;;;;;;;;;;16.35;54.83;100509.00;5033106;28;19920;-42
2021/11/21 10:40:06;;;;;;;;;;;;;;;16.38;54.81;100503.44;5033384;28;19913;-42
2021/11/21 10:42:31;;;;;;;;;;;;;;;16.39;54.37;100504.31;5033120;28;19921;-43
2021/11/21 10:44:57;;;;;;;;;;;;;;;16.39;54.49;100491.75;4996251;28;19917;-45
2021/11/21 10:47:23;;;;;;;;;;;;;;;16.40;54.37;100489.91;5030792;28;19920;-42
2021/11/21 10:49:52;;;;;;;;;;;;;;;16.41;54.33;100492.50;5031090;28;20425;-43
2021/11/21 10:52:19;;;;;;;;;;;;;;;16.42;54.48;100479.94;5032122;28;19913;-40
2021/11/21 10:54:45;;;;;;;;;;;;;;;16.40;54.52;100477.34;5032182;28;19917;-44
2021/11/21 10:57:15;;;;;;;;;;;;;;;16.41;54.60;100471.06;5020642;28;19979;-42
2021/11/21 10:59:51;;;;;;;;;;;;;;;16.44;54.90;100465.44;5032274;28;19971;-44
2021/11/21 11:02:19;;;;;;;;;;;;;;;16.43;54.77;100463.75;5032848;28;19914;-42
2021/11/21 11:04:59;;;;;;;;;;;;;;;16.45;54.37;100461.81;5032764;28;19913;-41
2021/11/21 11:07:26;;;;;;;;;;;;;;;16.47;54.32;100454.50;5032780;28;19952;-41
2021/11/21 11:09:53;;;;;;;;;;;;;;;16.47;54.54;100451.84;5032361;28;19921;-41
2021/11/21 11:12:18;;;;;;;;;;;;;;;16.48;54.34;100450.88;5032763;28;19963;-41
2021/11/21 11:14:44;;;;;;;;;;;;;;;16.50;54.57;100446.25;5031295;28;19957;-43
2021/11/21 11:17:09;;;;;;;;;;;;;;;16.52;54.31;100441.66;5032562;28;20011;-42
2021/11/21 11:19:35;;;;;;;;;;;;;;;16.50;54.27;100435.53;5031976;28;20312;-41
2021/11/21 11:22:01;;;;;;;;;;;;;;;16.52;54.64;100447.03;5031744;28;20423;-43
2021/11/21 11:24:27;;;;;;;;;;;;;;;16.53;54.68;100437.16;5032629;28;19956;-43
2021/11/21 11:27:15;;;;;;;;;;;;;;;16.55;54.19;100432.53;5032670;28;19952;-39
2021/11/21 11:29:47;;;;;;;;;;;;;;;16.56;54.23;100427.06;5020367;28;19921;-43
2021/11/21 11:32:23;;;;;;;;;;;;;;;16.60;54.47;100413.41;5034134;28;19913;-44
2021/11/21 11:34:49;;;;;;;;;;;;;;;16.56;54.16;100416.34;5032059;28;19960;-40
2021/11/21 11:37:23;;;;;;;;;;;;;;;16.58;54.16;100406.34;5032502;28;20285;-39
2021/11/21 11:39:49;;;;;;;;;;;;;;;16.60;54.57;100400.00;5032423;28;20004;-41
2021/11/21 11:42:34;;;;;;;;;;;;;;;16.58;54.28;100400.97;5032252;28;19964;-40
2021/11/21 11:44:59;;;;;;;;;;;;;;;16.61;54.14;100391.84;5031978;28;19998;-42
2021/11/21 11:47:25;;;;;;;;;;;;;;;16.60;54.35;100392.81;5032314;28;20373;-41
2021/11/21 11:49:51;;;;;;;;;;;;;;;16.63;54.58;100389.03;5014635;28;19917;-43
2021/11/21 11:52:16;;;;;;;;;;;;;;;16.63;54.10;100387.22;5032335;28;19920;-42
2021/11/21 11:55:01;;;;;;;;;;;;;;;16.64;54.42;100385.41;5030866;28;19913;-41
2021/11/21 11:57:34;;;;;;;;;;;;;;;16.64;54.50;100386.28;5027359;28;19922;-42
2021/11/21 12:00:19;;;;;;;;;;;;;;;16.67;54.31;100374.44;5012712;28;20367;-42
2021/11/21 12:02:46;;;;;;;;;;;;;;;16.66;54.18;100368.22;5012362;28;19932;-44
2021/11/21 12:05:11;;;;;;;;;;;;;;;16.69;54.59;100375.22;5029528;28;19921;-42
2021/11/21 12:07:42;;;;;;;;;;;;;;;16.69;54.06;100359.97;5032096;28;19913;-41
2021/11/21 12:10:12;;;;;;;;;;;;;;;16.72;54.32;100362.44;5032002;28;19979;-44
2021/11/21 12:12:54;;;;;;;;;;;;;;;16.72;54.39;100356.22;5032156;28;20337;-43
2021/11/21 12:15:49;;;;;;;;;;;;;;;16.72;54.13;100356.22;5031735;28;19921;-42
2021/11/21 12:18:14;;;;;;;;;;;;;;;16.72;54.20;100349.00;5028949;28;20011;-42
2021/11/21 12:20:52;;;;;;;;;;;;;;;16.75;54.45;100345.25;5030607;28;20059;-44
2021/11/21 12:23:36;;;;;;;;;;;;;;;16.76;54.18;100347.84;5030818;28;19920;-42
2021/11/21 12:26:20;;;;;;;;;;;;;;;16.77;54.10;100338.81;5031512;28;19917;-44
2021/11/21 12:28:56;;;;;;;;;;;;;;;16.77;54.35;100330.78;5031836;28;19925;-41
2021/11/21 12:31:31;;;;;;;;;;;;;;;16.77;54.03;100336.13;5033378;28;19913;-44